Pointe-Au-Pere, Canada
Current Conditions -  °F | °C
As of 9:20 AM on Sunday 23 Nov 2014 (Local Time) from CYYY Reporting Station
Broken Clouds Broken Clouds  
Wind Chill: 24°   Ceiling: 2500
Heat Index: 34°   Visibility: 30mi
Dew Point: 25°   Wind: 14mph
Humidity: 70%   Direction: 310°NW
Pressure: 29.94"   Gusts: NA
Location:  48.52°N, 68.47°W
Report Text: CYYY 231420Z 31012KT 30SM BKN025 01/M04 A2994 RMK SC6 SLP140
Loading
Personal Weather Stations






























Interactive Weather Map New forecast layout! Learn more

10-Day Weather Forecast

Advertisements
Track Severe Weather on mobile